createdAt,value
2022-08-26T00:02:12.603Z,12.25
2022-08-26T00:04:42.236Z,11.20
2022-08-26T00:07:11.103Z,11.70
2022-08-26T00:09:40.357Z,10.55
2022-08-26T00:12:12.459Z,10.38
2022-08-26T00:14:41.614Z,10.35
2022-08-26T00:17:10.286Z,11.20
2022-08-26T00:19:38.401Z,10.15
2022-08-26T00:22:07.867Z,10.77
2022-08-26T00:24:35.902Z,10.40
2022-08-26T00:27:04.058Z,10.02
2022-08-26T00:29:37.470Z,10.07
2022-08-26T00:32:06.533Z,10.43
2022-08-26T00:34:35.111Z,10.05
2022-08-26T00:37:03.124Z,10.70
2022-08-26T00:39:33.118Z,10.23
2022-08-26T00:42:01.334Z,10.73
2022-08-26T00:44:30.551Z,11.27
2022-08-26T00:47:03.675Z,10.48
2022-08-26T00:49:38.288Z,10.88
2022-08-26T00:52:11.938Z,10.80
2022-08-26T00:54:47.043Z,10.35
2022-08-26T00:57:17.940Z,10.38
2022-08-26T00:59:48.099Z,11.20
2022-08-26T01:02:21.183Z,11.35
2022-08-26T01:04:54.396Z,11.27
2022-08-26T01:07:25.657Z,10.82
2022-08-26T01:09:55.178Z,10.57
2022-08-26T01:12:25.081Z,11.60
2022-08-26T01:14:53.428Z,11.45
2022-08-26T01:17:21.583Z,10.80
2022-08-26T01:19:52.415Z,10.27
2022-08-26T01:22:28.123Z,10.43
2022-08-26T01:24:58.970Z,10.48
2022-08-26T01:27:32.354Z,10.50
2022-08-26T01:30:02.674Z,10.95
2022-08-26T01:32:32.944Z,10.60
2022-08-26T01:35:01.916Z,10.45
2022-08-26T01:37:36.908Z,9.82
2022-08-26T01:40:14.821Z,10.80
2022-08-26T01:42:46.781Z,11.52
2022-08-26T01:45:19.499Z,11.73
2022-08-26T01:47:49.881Z,11.18
2022-08-26T01:50:30.398Z,10.88
2022-08-26T01:53:00.699Z,11.25
2022-08-26T01:55:33.030Z,10.85
2022-08-26T01:58:05.411Z,10.88
2022-08-26T02:00:35.365Z,11.10
2022-08-26T02:03:17.697Z,10.93
2022-08-26T02:05:48.766Z,11.13
2022-08-26T02:08:24.496Z,11.82
2022-08-26T02:10:55.145Z,11.75
2022-08-26T02:13:25.498Z,12.23
2022-08-26T02:15:55.042Z,11.88
2022-08-26T02:18:24.253Z,11.43
2022-08-26T02:20:55.241Z,11.57
2022-08-26T02:23:24.024Z,11.27
2022-08-26T02:25:57.414Z,12.00
2022-08-26T02:28:27.975Z,11.73
2022-08-26T02:30:56.650Z,12.13
2022-08-26T02:33:24.895Z,11.77
2022-08-26T02:35:53.036Z,12.07
2022-08-26T02:38:21.156Z,11.80
2022-08-26T02:40:49.448Z,12.13
2022-08-26T02:43:31.413Z,11.60
2022-08-26T02:46:02.335Z,11.50
2022-08-26T02:48:30.922Z,11.77
2022-08-26T02:51:00.513Z,12.02
2022-08-26T02:53:28.570Z,12.57
2022-08-26T02:56:00.790Z,10.95
2022-08-26T02:58:30.785Z,11.93
2022-08-26T03:00:58.799Z,11.43
2022-08-26T03:03:27.578Z,12.32
2022-08-26T03:05:55.809Z,12.70
2022-08-26T03:08:24.107Z,12.38
2022-08-26T03:10:53.341Z,11.82
2022-08-26T03:13:21.398Z,12.38
2022-08-26T03:15:50.806Z,12.50
2022-08-26T03:18:18.838Z,12.05
2022-08-26T03:20:48.562Z,12.27
2022-08-26T03:23:16.847Z,12.45
2022-08-26T03:25:50.413Z,12.73
2022-08-26T03:28:19.356Z,11.63
2022-08-26T03:30:48.023Z,12.85
2022-08-26T03:33:19.134Z,13.02
2022-08-26T03:35:50.780Z,12.45
2022-08-26T03:38:19.830Z,13.25
2022-08-26T03:40:48.508Z,12.55
2022-08-26T03:43:19.710Z,12.98
2022-08-26T03:45:47.982Z,12.75
2022-08-26T03:48:16.026Z,12.32
2022-08-26T03:50:45.367Z,12.80
2022-08-26T03:53:15.619Z,13.02
2022-08-26T03:55:43.626Z,12.93
2022-08-26T03:58:12.250Z,13.80
2022-08-26T04:00:40.313Z,12.70
2022-08-26T04:03:10.068Z,12.60
2022-08-26T04:05:38.949Z,12.52
2022-08-26T04:08:08.622Z,13.45
2022-08-26T04:10:39.044Z,13.13
2022-08-26T04:13:07.248Z,13.38
2022-08-26T04:15:35.509Z,12.40
2022-08-26T04:18:04.375Z,11.88
2022-08-26T04:20:32.568Z,13.23
2022-08-26T04:23:00.669Z,13.20
2022-08-26T04:25:30.131Z,12.63
2022-08-26T04:27:58.171Z,12.73
2022-08-26T04:30:26.309Z,12.85
2022-08-26T04:32:54.364Z,14.13
2022-08-26T04:35:25.764Z,13.63
2022-08-26T04:37:55.491Z,12.50
2022-08-26T04:40:24.102Z,12.65
2022-08-26T04:42:56.457Z,13.13
2022-08-26T04:45:25.342Z,12.80
2022-08-26T04:47:57.334Z,12.57
2022-08-26T04:50:26.999Z,13.02
2022-08-26T04:52:55.619Z,12.82
2022-08-26T04:55:38.136Z,13.00
2022-08-26T04:58:10.167Z,12.90
2022-08-26T05:00:39.086Z,13.10
2022-08-26T05:03:10.546Z,12.75
2022-08-26T05:05:43.228Z,11.77
2022-08-26T05:08:12.379Z,13.55
2022-08-26T05:10:41.991Z,12.00
2022-08-26T05:13:15.574Z,12.15
2022-08-26T05:15:44.623Z,12.48
2022-08-26T05:18:14.923Z,12.15
2022-08-26T05:20:45.047Z,11.95
2022-08-26T05:23:15.770Z,11.50
2022-08-26T05:25:45.983Z,12.55
2022-08-26T05:28:17.442Z,12.65
2022-08-26T05:30:46.200Z,11.98
2022-08-26T05:33:15.227Z,11.77
2022-08-26T05:35:44.694Z,11.18
2022-08-26T05:38:15.606Z,12.55
2022-08-26T05:40:46.386Z,11.75
2022-08-26T05:43:15.974Z,11.82
2022-08-26T05:45:47.484Z,11.55
2022-08-26T05:48:18.198Z,11.30
2022-08-26T05:50:48.367Z,12.60
2022-08-26T05:53:20.234Z,11.82
2022-08-26T05:55:50.676Z,11.57
2022-08-26T05:58:22.194Z,11.18
2022-08-26T06:00:59.183Z,12.50
2022-08-26T06:03:27.747Z,11.50
2022-08-26T06:05:55.776Z,11.40
2022-08-26T06:08:23.810Z,11.95
2022-08-26T06:10:53.876Z,11.93
2022-08-26T06:13:26.869Z,11.68
2022-08-26T06:15:56.280Z,11.07
2022-08-26T06:18:27.489Z,11.30
2022-08-26T06:20:58.286Z,10.50
2022-08-26T06:23:51.265Z,11.07
2022-08-26T06:26:19.258Z,11.55
2022-08-26T06:28:48.682Z,11.48
2022-08-26T06:31:17.415Z,11.98
2022-08-26T06:33:45.914Z,11.90
2022-08-26T06:36:19.355Z,12.05
2022-08-26T06:38:48.447Z,11.50
2022-08-26T06:41:17.970Z,11.48
2022-08-26T06:43:46.004Z,12.13
2022-08-26T06:46:17.609Z,11.75
2022-08-26T06:48:46.321Z,11.48
2022-08-26T06:51:17.139Z,10.73
2022-08-26T06:53:47.627Z,11.30
2022-08-26T06:56:19.148Z,9.77
2022-08-26T06:58:47.590Z,10.13
2022-08-26T07:01:18.899Z,10.50
2022-08-26T07:03:49.070Z,9.38
2022-08-26T07:06:18.553Z,10.20
2022-08-26T07:08:46.759Z,9.95
2022-08-26T07:11:15.655Z,9.95
2022-08-26T07:13:44.825Z,8.90
2022-08-26T07:16:18.067Z,8.52
2022-08-26T07:18:48.531Z,9.20
2022-08-26T07:21:18.265Z,8.38
2022-08-26T07:23:47.158Z,7.75
2022-08-26T07:26:18.222Z,8.30
2022-08-26T07:28:48.475Z,7.90
2022-08-26T07:31:18.632Z,8.63
2022-08-26T07:33:47.064Z,8.85
2022-08-26T07:36:16.479Z,8.57
2022-08-26T07:38:45.515Z,8.13
2022-08-26T07:41:14.241Z,8.30
2022-08-26T07:43:42.899Z,8.40
2022-08-26T07:46:16.459Z,8.80
2022-08-26T07:48:46.710Z,8.38
2022-08-26T07:51:16.023Z,8.38
2022-08-26T07:53:44.188Z,8.38
2022-08-26T07:56:16.212Z,7.95
2022-08-26T07:58:46.650Z,8.73
2022-08-26T08:01:17.005Z,7.90
2022-08-26T08:03:46.467Z,8.07
2022-08-26T08:06:18.886Z,9.07
2022-08-26T08:08:47.468Z,8.20
2022-08-26T08:11:15.524Z,8.55
2022-08-26T08:13:43.563Z,8.75
2022-08-26T08:16:12.761Z,8.57
2022-08-26T08:18:41.174Z,8.07
2022-08-26T08:21:22.182Z,8.50
2022-08-26T08:23:53.246Z,8.40
2022-08-26T08:26:21.325Z,8.25
2022-08-26T08:28:49.526Z,8.43
2022-08-26T08:31:52.019Z,8.40
2022-08-26T08:34:10.150Z,8.38
2022-08-26T08:36:39.810Z,8.23
2022-08-26T08:39:07.835Z,8.32
2022-08-26T08:41:49.339Z,8.32
2022-08-26T08:46:55.706Z,7.82
2022-08-26T08:49:26.903Z,7.53
2022-08-26T08:52:03.247Z,8.02
2022-08-26T08:54:32.788Z,8.20
2022-08-26T08:57:07.069Z,8.35
2022-08-26T08:59:38.542Z,7.95
2022-08-26T09:02:17.144Z,7.75
2022-08-26T09:05:14.933Z,7.63
2022-08-26T09:07:49.290Z,8.20
2022-08-26T09:10:32.142Z,7.90
2022-08-26T09:13:02.603Z,7.38
2022-08-26T09:15:37.374Z,7.85
2022-08-26T09:18:12.410Z,7.38
2022-08-26T09:20:49.253Z,7.57
2022-08-26T09:23:19.683Z,7.18
2022-08-26T09:25:51.041Z,7.07
2022-08-26T09:28:21.179Z,7.30
2022-08-26T09:31:01.352Z,7.10
2022-08-26T09:33:32.300Z,7.13
2022-08-26T09:36:26.185Z,7.60
2022-08-26T09:38:55.936Z,7.25
2022-08-26T09:41:26.979Z,7.20
2022-08-26T09:44:14.479Z,6.93
2022-08-26T09:46:47.786Z,6.07
2022-08-26T09:49:26.228Z,6.63
2022-08-26T09:52:11.538Z,6.03
2022-08-26T09:54:41.964Z,5.82
2022-08-26T09:57:28.915Z,5.65
2022-08-26T09:59:57.617Z,5.72
2022-08-26T10:02:47.950Z,5.50
2022-08-26T10:05:27.556Z,5.40
2022-08-26T10:07:59.586Z,6.22
2022-08-26T10:10:34.787Z,5.65
2022-08-26T10:13:08.900Z,6.07
2022-08-26T10:15:50.077Z,5.53
2022-08-26T10:18:23.687Z,5.50
2022-08-26T10:20:57.910Z,5.60
2022-08-26T10:23:29.475Z,5.65
2022-08-26T10:26:05.166Z,5.55
2022-08-26T10:28:39.288Z,5.93
2022-08-26T10:31:14.785Z,5.95
2022-08-26T10:33:44.092Z,5.60
2022-08-26T10:36:31.183Z,5.78
2022-08-26T10:39:07.653Z,5.97
2022-08-26T10:41:44.153Z,5.95
2022-08-26T10:44:18.133Z,5.90
2022-08-26T10:46:50.385Z,5.50
2022-08-26T10:49:20.039Z,6.10
2022-08-26T10:51:55.574Z,6.28
2022-08-26T10:54:30.662Z,5.78
2022-08-26T10:57:05.856Z,6.05
2022-08-26T10:59:49.688Z,6.05
2022-08-26T11:02:26.253Z,6.18
2022-08-26T11:04:58.501Z,6.68
2022-08-26T11:07:42.366Z,6.85
2022-08-26T11:10:33.475Z,7.15
2022-08-26T11:13:04.742Z,6.85
2022-08-26T11:16:01.247Z,7.47
2022-08-26T11:18:46.818Z,7.47
2022-08-26T11:21:52.567Z,7.18
2022-08-26T11:24:46.814Z,7.03
2022-08-26T11:28:03.206Z,6.63
2022-08-26T11:30:56.991Z,6.53
2022-08-26T11:33:58.060Z,6.53
2022-08-26T11:36:40.506Z,6.30
2022-08-26T11:39:24.183Z,6.70
2022-08-26T11:41:55.486Z,6.60
2022-08-26T11:44:29.133Z,6.78
2022-08-26T11:47:03.109Z,6.40
2022-08-26T11:49:33.411Z,6.90
2022-08-26T11:52:17.495Z,6.70
2022-08-26T11:55:03.224Z,6.72
2022-08-26T11:57:34.024Z,6.60
2022-08-26T12:00:02.692Z,6.30
2022-08-26T12:02:33.707Z,7.05
2022-08-26T12:05:02.964Z,6.65
2022-08-26T12:07:31.696Z,6.50
2022-08-26T12:10:05.189Z,6.40
2022-08-26T12:12:38.670Z,5.97
2022-08-26T12:15:17.317Z,6.40
2022-08-26T12:17:53.355Z,5.55
2022-08-26T12:20:45.900Z,5.85
2022-08-26T12:23:29.115Z,6.40
2022-08-26T12:26:06.326Z,6.57
2022-08-26T12:28:34.471Z,7.53
2022-08-26T12:31:04.762Z,7.90
2022-08-26T12:33:35.946Z,8.20
2022-08-26T12:36:05.732Z,7.80
2022-08-26T12:38:36.811Z,8.27
2022-08-26T12:41:04.950Z,9.20
2022-08-26T12:43:44.716Z,10.68
2022-08-26T12:46:15.370Z,11.40
2022-08-26T12:48:49.841Z,11.40
2022-08-26T12:51:24.548Z,11.68
2022-08-26T12:53:53.653Z,12.15
2022-08-26T12:56:31.097Z,11.93
2022-08-26T12:59:04.403Z,10.63
2022-08-26T13:01:39.421Z,10.85
2022-08-26T13:04:09.136Z,10.32
2022-08-26T13:06:37.250Z,11.10
2022-08-26T13:09:26.379Z,9.77
2022-08-26T13:12:02.322Z,10.90
2022-08-26T13:14:30.469Z,10.77
2022-08-26T13:16:58.485Z,10.88
2022-08-26T13:19:29.544Z,11.07
2022-08-26T13:21:59.759Z,10.10
2022-08-26T13:24:33.671Z,10.63
2022-08-26T13:27:01.947Z,10.93
2022-08-26T13:29:29.971Z,10.35
2022-08-26T13:31:59.632Z,11.63
2022-08-26T13:34:29.207Z,10.75
2022-08-26T13:36:58.365Z,12.75
2022-08-26T13:39:28.821Z,12.88
2022-08-26T13:41:56.826Z,15.40
2022-08-26T13:44:24.999Z,17.33
2022-08-26T13:46:52.989Z,14.85
2022-08-26T13:49:21.027Z,16.17
2022-08-26T13:51:50.411Z,16.75
2022-08-26T13:54:18.414Z,18.23
2022-08-26T13:56:46.446Z,20.55
2022-08-26T13:59:14.452Z,21.40
2022-08-26T14:01:42.520Z,21.00
2022-08-26T14:04:10.514Z,21.90
2022-08-26T14:06:38.550Z,21.70
2022-08-26T14:09:07.900Z,23.13
2022-08-26T14:11:53.994Z,23.73
2022-08-26T14:14:23.015Z,24.75
2022-08-26T14:16:59.072Z,24.30
2022-08-26T14:19:28.259Z,26.67
2022-08-26T14:21:56.577Z,28.42
2022-08-26T14:24:25.993Z,26.30
2022-08-26T14:26:53.974Z,25.90
2022-08-26T14:29:22.011Z,30.45
2022-08-26T14:31:50.107Z,27.35
2022-08-26T14:34:18.603Z,29.15
2022-08-26T14:36:46.643Z,31.27
2022-08-26T14:39:14.925Z,30.00
2022-08-26T14:41:54.661Z,30.60
2022-08-26T14:44:25.170Z,28.38
2022-08-26T14:46:54.532Z,28.92
2022-08-26T14:49:24.121Z,33.53
2022-08-26T14:51:52.235Z,35.28
2022-08-26T14:54:20.859Z,35.75
2022-08-26T14:56:52.580Z,34.90
2022-08-26T14:59:22.673Z,31.75
2022-08-26T15:01:51.326Z,34.90
2022-08-26T15:04:20.352Z,33.38
2022-08-26T15:06:48.608Z,33.17
2022-08-26T15:09:16.993Z,32.33
2022-08-26T15:11:45.019Z,35.33
2022-08-26T15:14:19.620Z,35.50
2022-08-26T15:16:48.760Z,33.90
2022-08-26T15:19:16.946Z,32.75
2022-08-26T15:21:45.635Z,32.58
2022-08-26T15:24:14.693Z,31.83
2022-08-26T15:26:42.782Z,30.70
2022-08-26T15:29:10.792Z,26.42
2022-08-26T15:31:40.279Z,26.48
2022-08-26T15:34:14.554Z,24.45
2022-08-26T15:36:45.868Z,26.45
2022-08-26T15:39:15.154Z,28.85
2022-08-26T15:41:43.263Z,30.80
2022-08-26T15:44:11.510Z,29.30
2022-08-26T15:46:42.093Z,29.45
2022-08-26T15:49:12.063Z,31.17
2022-08-26T15:51:48.149Z,31.00
2022-08-26T15:54:17.883Z,30.77
2022-08-26T15:56:48.488Z,31.23
2022-08-26T15:59:17.446Z,30.05
2022-08-26T16:01:47.022Z,30.08
2022-08-26T16:04:15.414Z,30.35
2022-08-26T16:06:43.998Z,30.45
2022-08-26T16:09:12.407Z,28.30
2022-08-26T16:11:40.434Z,27.40
2022-08-26T16:14:09.016Z,28.45
2022-08-26T16:16:40.074Z,29.38
2022-08-26T16:19:10.090Z,28.67
2022-08-26T16:21:38.690Z,30.67
2022-08-26T16:24:07.257Z,29.42
2022-08-26T16:26:37.279Z,30.92
2022-08-26T16:29:08.625Z,31.27
2022-08-26T16:31:38.386Z,30.00
2022-08-26T16:34:06.951Z,28.73
2022-08-26T16:36:37.383Z,29.52
2022-08-26T16:39:07.022Z,28.13
2022-08-26T16:41:35.287Z,32.50
2022-08-26T16:44:03.818Z,29.23
2022-08-26T16:46:32.283Z,32.03
2022-08-26T16:49:03.625Z,29.52
2022-08-26T16:51:32.450Z,32.53
2022-08-26T16:54:08.966Z,34.67
2022-08-26T16:56:37.746Z,33.47
2022-08-26T16:59:07.380Z,32.88
2022-08-26T17:01:35.612Z,31.77
2022-08-26T17:04:04.148Z,33.58
2022-08-26T17:06:32.196Z,34.20
2022-08-26T17:09:00.271Z,33.13
2022-08-26T17:11:29.751Z,33.85
2022-08-26T17:13:58.022Z,35.90
2022-08-26T17:16:27.064Z,34.28
2022-08-26T17:18:56.868Z,33.55
2022-08-26T17:21:25.306Z,33.88
2022-08-26T17:23:54.018Z,36.47
2022-08-26T17:26:22.464Z,32.47
2022-08-26T17:28:52.254Z,35.45
2022-08-26T17:31:21.335Z,35.03
2022-08-26T17:33:54.016Z,35.88
2022-08-26T17:36:28.040Z,34.33
2022-08-26T17:38:58.782Z,33.75
2022-08-26T17:41:27.879Z,33.67
2022-08-26T17:43:57.439Z,33.35
2022-08-26T17:46:26.037Z,32.25
2022-08-26T17:48:54.223Z,32.63
2022-08-26T17:51:23.486Z,32.28
2022-08-26T17:53:52.651Z,29.48
2022-08-26T17:56:24.091Z,30.60
2022-08-26T17:58:53.286Z,30.40
2022-08-26T18:01:23.536Z,31.30
2022-08-26T18:03:51.916Z,28.33
2022-08-26T18:06:21.851Z,29.75
2022-08-26T18:08:52.012Z,28.42
2022-08-26T18:11:22.974Z,28.35
2022-08-26T18:13:51.092Z,29.98
2022-08-26T18:16:20.322Z,27.13
2022-08-26T18:18:53.488Z,27.65
2022-08-26T18:21:23.044Z,28.23
2022-08-26T18:23:52.161Z,28.60
2022-08-26T18:26:22.087Z,26.63
2022-08-26T18:28:50.201Z,26.80
2022-08-26T18:31:18.659Z,25.88
2022-08-26T18:33:47.253Z,23.95
2022-08-26T18:36:22.915Z,25.00
2022-08-26T18:38:52.294Z,23.55
2022-08-26T18:41:21.737Z,22.23
2022-08-26T18:43:50.751Z,21.63
2022-08-26T18:46:20.091Z,22.63
2022-08-26T18:48:50.770Z,21.52
2022-08-26T18:51:23.125Z,22.08
2022-08-26T18:53:52.260Z,21.58
2022-08-26T18:56:21.334Z,20.95
2022-08-26T18:58:53.827Z,19.95
2022-08-26T19:01:26.671Z,19.27
2022-08-26T19:03:55.823Z,17.98
2022-08-26T19:06:26.439Z,18.98
2022-08-26T19:08:57.834Z,17.58
2022-08-26T19:11:32.153Z,16.42
2022-08-26T19:14:06.475Z,16.95
2022-08-26T19:16:34.856Z,17.27
2022-08-26T19:19:03.385Z,16.08
2022-08-26T19:21:34.139Z,16.65
2022-08-26T19:24:05.098Z,15.15
2022-08-26T19:26:33.626Z,14.85
2022-08-26T19:29:02.188Z,15.80
2022-08-26T19:31:31.250Z,13.45
2022-08-26T19:33:59.575Z,14.45
2022-08-26T19:36:29.035Z,14.75
2022-08-26T19:38:58.586Z,14.85
2022-08-26T19:41:36.775Z,15.27
2022-08-26T19:44:08.604Z,16.02
2022-08-26T19:49:10.392Z,14.90
2022-08-26T19:51:38.595Z,15.00
2022-08-26T19:54:08.044Z,14.10
2022-08-26T19:56:36.537Z,15.43
2022-08-26T19:59:04.674Z,14.98
2022-08-26T20:01:32.770Z,14.75
2022-08-26T20:04:00.852Z,14.10
2022-08-26T20:06:28.869Z,15.13
2022-08-26T20:08:57.092Z,14.82
2022-08-26T20:11:26.476Z,14.18
2022-08-26T20:13:55.319Z,14.07
2022-08-26T20:16:23.434Z,14.60
2022-08-26T20:19:09.215Z,14.05
2022-08-26T20:21:39.272Z,14.90
2022-08-26T20:24:10.150Z,13.98
2022-08-26T20:26:41.451Z,14.02
2022-08-26T20:29:10.662Z,13.18
2022-08-26T20:31:39.027Z,14.05
2022-08-26T20:34:07.715Z,15.30
2022-08-26T20:36:35.998Z,14.88
2022-08-26T20:39:05.045Z,13.38
2022-08-26T20:41:33.515Z,14.38
2022-08-26T20:44:03.003Z,13.65
2022-08-26T20:46:31.452Z,15.15
2022-08-26T20:48:59.535Z,14.05
2022-08-26T20:51:28.915Z,14.68
2022-08-26T20:53:57.094Z,13.93
2022-08-26T20:56:25.270Z,14.15
2022-08-26T20:58:55.118Z,14.15
2022-08-26T21:01:26.798Z,15.10
2022-08-26T21:03:56.868Z,13.48
2022-08-26T21:06:25.604Z,14.52
2022-08-26T21:08:54.718Z,14.65
2022-08-26T21:11:22.925Z,14.75
2022-08-26T21:14:06.922Z,14.95
2022-08-26T21:16:42.026Z,14.80
2022-08-26T21:19:12.374Z,14.43
2022-08-26T21:21:40.732Z,14.50
2022-08-26T21:24:09.315Z,15.00
2022-08-26T21:26:37.491Z,14.50
2022-08-26T21:29:06.702Z,16.05
2022-08-26T21:31:35.090Z,15.55
2022-08-26T21:34:04.762Z,14.70
2022-08-26T21:36:32.757Z,15.55
2022-08-26T21:39:01.738Z,15.35
2022-08-26T21:41:29.971Z,14.30
2022-08-26T21:43:59.671Z,15.43
2022-08-26T21:46:29.341Z,15.10
2022-08-26T21:48:59.663Z,15.25
2022-08-26T21:51:31.169Z,14.95
2022-08-26T21:54:00.299Z,15.10
2022-08-26T21:56:31.572Z,14.93
2022-08-26T21:59:00.607Z,14.23
2022-08-26T22:01:34.980Z,14.32
2022-08-26T22:04:04.229Z,14.38
2022-08-26T22:06:35.802Z,15.80
2022-08-26T22:09:03.830Z,15.20
2022-08-26T22:11:33.560Z,15.20
2022-08-26T22:14:01.576Z,15.10
2022-08-26T22:16:29.679Z,15.23
2022-08-26T22:18:57.929Z,14.60
2022-08-26T22:21:28.030Z,14.73
2022-08-26T22:23:58.676Z,13.90
2022-08-26T22:26:29.068Z,15.07
2022-08-26T22:28:59.029Z,14.20
2022-08-26T22:31:37.893Z,13.80
2022-08-26T22:34:08.727Z,14.50
2022-08-26T22:36:39.782Z,15.05
2022-08-26T22:39:13.997Z,14.73
2022-08-26T22:41:43.041Z,13.98
2022-08-26T22:44:11.683Z,15.73
2022-08-26T22:46:39.835Z,15.95
2022-08-26T22:49:09.562Z,15.90
2022-08-26T22:51:37.805Z,15.15
2022-08-26T22:54:06.359Z,14.20
2022-08-26T22:56:36.558Z,14.38
2022-08-26T22:59:05.548Z,13.68
2022-08-26T23:01:36.664Z,13.70
2022-08-26T23:04:06.910Z,14.65
2022-08-26T23:06:36.738Z,14.93
2022-08-26T23:09:05.355Z,14.60
2022-08-26T23:11:33.434Z,13.95
2022-08-26T23:14:03.520Z,14.77
2022-08-26T23:16:39.149Z,14.23
2022-08-26T23:19:08.538Z,15.25
2022-08-26T23:21:36.895Z,14.73
2022-08-26T23:24:05.619Z,14.13
2022-08-26T23:26:33.689Z,16.17
2022-08-26T23:29:05.947Z,14.88
2022-08-26T23:31:34.190Z,14.82
2022-08-26T23:34:19.640Z,14.27
2022-08-26T23:36:47.663Z,15.45
2022-08-26T23:39:15.864Z,14.18
2022-08-26T23:41:43.921Z,15.15
2022-08-26T23:44:13.390Z,15.25
2022-08-26T23:46:41.410Z,15.43
2022-08-26T23:49:09.398Z,15.68
2022-08-26T23:51:56.130Z,15.38
2022-08-26T23:54:24.175Z,16.75
2022-08-26T23:56:52.181Z,15.52
2022-08-26T23:59:21.733Z,15.98
